sensor_id;sensor_type;location;lat;lon;timestamp;P1;durP1;ratioP1;P2;durP2;ratioP2
2061;SDS011;11070;51.336;12.340;2023-10-13T00:01:44;18.27;;;13.70;;
2061;SDS011;11070;51.336;12.340;2023-10-13T00:04:12;14.45;;;12.95;;
2061;SDS011;11070;51.336;12.340;2023-10-13T00:06:37;19.97;;;13.20;;
2061;SDS011;11070;51.336;12.340;2023-10-13T00:09:03;16.03;;;12.90;;
2061;SDS011;11070;51.336;12.340;2023-10-13T00:11:29;17.25;;;13.35;;
2061;SDS011;11070;51.336;12.340;2023-10-13T00:13:55;13.73;;;12.27;;
2061;SDS011;11070;51.336;12.340;2023-10-13T00:16:21;16.47;;;12.77;;
2061;SDS011;11070;51.336;12.340;2023-10-13T00:18:48;16.63;;;13.38;;
2061;SDS011;11070;51.336;12.340;2023-10-13T00:21:15;15.00;;;13.40;;
2061;SDS011;11070;51.336;12.340;2023-10-13T00:23:45;17.30;;;12.98;;
2061;SDS011;11070;51.336;12.340;2023-10-13T00:26:20;16.17;;;12.95;;
2061;SDS011;11070;51.336;12.340;2023-10-13T00:28:53;13.80;;;12.02;;
2061;SDS011;11070;51.336;12.340;2023-10-13T00:31:31;13.55;;;12.25;;
2061;SDS011;11070;51.336;12.340;2023-10-13T00:34:01;14.05;;;12.50;;
2061;SDS011;11070;51.336;12.340;2023-10-13T00:36:37;14.48;;;12.27;;
2061;SDS011;11070;51.336;12.340;2023-10-13T00:39:13;15.23;;;13.45;;
2061;SDS011;11070;51.336;12.340;2023-10-13T00:41:43;18.38;;;12.95;;
2061;SDS011;11070;51.336;12.340;2023-10-13T00:44:17;19.13;;;12.63;;
2061;SDS011;11070;51.336;12.340;2023-10-13T00:46:53;16.30;;;13.88;;
2061;SDS011;11070;51.336;12.340;2023-10-13T00:49:21;14.88;;;13.25;;
2061;SDS011;11070;51.336;12.340;2023-10-13T00:51:48;15.35;;;13.43;;
2061;SDS011;11070;51.336;12.340;2023-10-13T00:54:15;14.88;;;12.73;;
2061;SDS011;11070;51.336;12.340;2023-10-13T00:56:43;15.43;;;13.82;;
2061;SDS011;11070;51.336;12.340;2023-10-13T00:59:22;19.17;;;13.30;;
2061;SDS011;11070;51.336;12.340;2023-10-13T01:01:50;14.68;;;13.07;;
2061;SDS011;11070;51.336;12.340;2023-10-13T01:04:20;14.85;;;12.75;;
2061;SDS011;11070;51.336;12.340;2023-10-13T01:06:48;14.68;;;12.65;;
2061;SDS011;11070;51.336;12.340;2023-10-13T01:09:14;13.93;;;12.53;;
2061;SDS011;11070;51.336;12.340;2023-10-13T01:11:43;16.40;;;13.25;;
2061;SDS011;11070;51.336;12.340;2023-10-13T01:14:11;18.60;;;13.75;;
2061;SDS011;11070;51.336;12.340;2023-10-13T01:16:40;15.35;;;13.73;;
2061;SDS011;11070;51.336;12.340;2023-10-13T01:19:09;17.45;;;14.75;;
2061;SDS011;11070;51.336;12.340;2023-10-13T01:21:39;17.63;;;13.75;;
2061;SDS011;11070;51.336;12.340;2023-10-13T01:24:06;15.30;;;12.35;;
2061;SDS011;11070;51.336;12.340;2023-10-13T01:26:35;13.73;;;12.43;;
2061;SDS011;11070;51.336;12.340;2023-10-13T01:29:06;14.60;;;12.52;;
2061;SDS011;11070;51.336;12.340;2023-10-13T01:31:43;13.18;;;11.88;;
2061;SDS011;11070;51.336;12.340;2023-10-13T01:34:17;12.45;;;11.15;;
2061;SDS011;11070;51.336;12.340;2023-10-13T01:36:53;14.48;;;12.30;;
2061;SDS011;11070;51.336;12.340;2023-10-13T01:39:22;16.88;;;11.73;;
2061;SDS011;11070;51.336;12.340;2023-10-13T01:41:54;13.90;;;11.85;;
2061;SDS011;11070;51.336;12.340;2023-10-13T01:44:25;15.68;;;11.77;;
2061;SDS011;11070;51.336;12.340;2023-10-13T01:46:53;14.15;;;11.90;;
2061;SDS011;11070;51.336;12.340;2023-10-13T01:49:19;12.93;;;11.60;;
2061;SDS011;11070;51.336;12.340;2023-10-13T01:51:47;14.10;;;11.98;;
2061;SDS011;11070;51.336;12.340;2023-10-13T01:54:13;13.63;;;11.33;;
2061;SDS011;11070;51.336;12.340;2023-10-13T01:56:40;12.68;;;11.38;;
2061;SDS011;11070;51.336;12.340;2023-10-13T01:59:12;11.80;;;10.60;;
2061;SDS011;11070;51.336;12.340;2023-10-13T02:01:38;13.30;;;11.23;;
2061;SDS011;11070;51.336;12.340;2023-10-13T02:04:06;13.68;;;11.40;;
2061;SDS011;11070;51.336;12.340;2023-10-13T02:06:32;13.03;;;10.87;;
2061;SDS011;11070;51.336;12.340;2023-10-13T02:09:06;12.63;;;10.90;;
2061;SDS011;11070;51.336;12.340;2023-10-13T02:11:39;11.55;;;9.88;;
2061;SDS011;11070;51.336;12.340;2023-10-13T02:14:06;12.13;;;10.73;;
2061;SDS011;11070;51.336;12.340;2023-10-13T02:16:36;11.55;;;10.35;;
2061;SDS011;11070;51.336;12.340;2023-10-13T02:19:02;13.13;;;10.80;;
2061;SDS011;11070;51.336;12.340;2023-10-13T02:21:31;12.27;;;10.38;;
2061;SDS011;11070;51.336;12.340;2023-10-13T02:24:00;13.75;;;10.88;;
2061;SDS011;11070;51.336;12.340;2023-10-13T02:26:26;11.63;;;10.52;;
2061;SDS011;11070;51.336;12.340;2023-10-13T02:29:00;15.02;;;11.05;;
2061;SDS011;11070;51.336;12.340;2023-10-13T02:31:44;13.40;;;11.57;;
2061;SDS011;11070;51.336;12.340;2023-10-13T02:34:20;14.73;;;11.75;;
2061;SDS011;11070;51.336;12.340;2023-10-13T02:36:48;13.23;;;11.88;;
2061;SDS011;11070;51.336;12.340;2023-10-13T02:39:14;11.48;;;10.27;;
2061;SDS011;11070;51.336;12.340;2023-10-13T02:41:41;13.02;;;11.63;;
2061;SDS011;11070;51.336;12.340;2023-10-13T02:44:12;11.60;;;10.55;;
2061;SDS011;11070;51.336;12.340;2023-10-13T02:46:52;12.23;;;10.98;;
2061;SDS011;11070;51.336;12.340;2023-10-13T02:49:21;12.27;;;11.00;;
2061;SDS011;11070;51.336;12.340;2023-10-13T02:51:47;12.68;;;11.20;;
2061;SDS011;11070;51.336;12.340;2023-10-13T02:54:13;12.53;;;10.40;;
2061;SDS011;11070;51.336;12.340;2023-10-13T02:56:43;13.45;;;11.23;;
2061;SDS011;11070;51.336;12.340;2023-10-13T02:59:25;10.32;;;9.30;;
2061;SDS011;11070;51.336;12.340;2023-10-13T03:02:12;12.65;;;10.30;;
2061;SDS011;11070;51.336;12.340;2023-10-13T03:04:45;11.13;;;9.93;;
2061;SDS011;11070;51.336;12.340;2023-10-13T03:07:15;10.75;;;9.65;;
2061;SDS011;11070;51.336;12.340;2023-10-13T03:09:43;12.85;;;10.02;;
2061;SDS011;11070;51.336;12.340;2023-10-13T03:12:16;11.57;;;10.05;;
2061;SDS011;11070;51.336;12.340;2023-10-13T03:14:42;12.63;;;9.93;;
2061;SDS011;11070;51.336;12.340;2023-10-13T03:17:14;11.07;;;9.98;;
2061;SDS011;11070;51.336;12.340;2023-10-13T03:19:45;11.07;;;10.05;;
2061;SDS011;11070;51.336;12.340;2023-10-13T03:22:15;12.02;;;10.32;;
2061;SDS011;11070;51.336;12.340;2023-10-13T03:24:41;11.05;;;9.95;;
2061;SDS011;11070;51.336;12.340;2023-10-13T03:27:21;11.73;;;9.93;;
2061;SDS011;11070;51.336;12.340;2023-10-13T03:29:49;12.13;;;10.40;;
2061;SDS011;11070;51.336;12.340;2023-10-13T03:32:22;14.23;;;11.40;;
2061;SDS011;11070;51.336;12.340;2023-10-13T03:34:51;14.02;;;11.82;;
2061;SDS011;11070;51.336;12.340;2023-10-13T03:37:17;14.93;;;11.30;;
2061;SDS011;11070;51.336;12.340;2023-10-13T03:39:45;14.35;;;11.82;;
2061;SDS011;11070;51.336;12.340;2023-10-13T03:42:12;13.90;;;12.13;;
2061;SDS011;11070;51.336;12.340;2023-10-13T03:44:44;13.40;;;11.90;;
2061;SDS011;11070;51.336;12.340;2023-10-13T03:47:11;13.57;;;12.18;;
2061;SDS011;11070;51.336;12.340;2023-10-13T03:49:46;13.73;;;12.07;;
2061;SDS011;11070;51.336;12.340;2023-10-13T03:52:16;14.27;;;12.73;;
2061;SDS011;11070;51.336;12.340;2023-10-13T03:54:47;14.00;;;12.50;;
2061;SDS011;11070;51.336;12.340;2023-10-13T03:57:13;14.00;;;12.60;;
2061;SDS011;11070;51.336;12.340;2023-10-13T03:59:38;17.53;;;13.83;;
2061;SDS011;11070;51.336;12.340;2023-10-13T04:02:05;14.07;;;12.63;;
2061;SDS011;11070;51.336;12.340;2023-10-13T04:04:43;17.75;;;12.60;;
2061;SDS011;11070;51.336;12.340;2023-10-13T04:07:14;16.80;;;13.20;;
2061;SDS011;11070;51.336;12.340;2023-10-13T04:09:59;13.73;;;12.25;;
2061;SDS011;11070;51.336;12.340;2023-10-13T04:12:54;14.18;;;12.52;;
2061;SDS011;11070;51.336;12.340;2023-10-13T04:15:52;16.88;;;13.05;;
2061;SDS011;11070;51.336;12.340;2023-10-13T04:18:36;15.70;;;13.20;;
2061;SDS011;11070;51.336;12.340;2023-10-13T04:21:22;13.63;;;11.98;;
2061;SDS011;11070;51.336;12.340;2023-10-13T04:24:10;12.30;;;11.00;;
2061;SDS011;11070;51.336;12.340;2023-10-13T04:26:56;14.50;;;11.73;;
2061;SDS011;11070;51.336;12.340;2023-10-13T04:29:38;14.07;;;11.52;;
2061;SDS011;11070;51.336;12.340;2023-10-13T04:32:13;14.52;;;11.13;;
2061;SDS011;11070;51.336;12.340;2023-10-13T04:34:40;13.18;;;10.68;;
2061;SDS011;11070;51.336;12.340;2023-10-13T04:37:11;12.02;;;10.13;;
2061;SDS011;11070;51.336;12.340;2023-10-13T04:39:57;13.68;;;10.60;;
2061;SDS011;11070;51.336;12.340;2023-10-13T04:42:35;13.40;;;10.13;;
2061;SDS011;11070;51.336;12.340;2023-10-13T04:45:19;15.40;;;10.82;;
2061;SDS011;11070;51.336;12.340;2023-10-13T04:47:54;11.63;;;10.43;;
2061;SDS011;11070;51.336;12.340;2023-10-13T04:50:39;16.63;;;11.18;;
2061;SDS011;11070;51.336;12.340;2023-10-13T04:53:11;12.88;;;11.10;;
2061;SDS011;11070;51.336;12.340;2023-10-13T04:55:56;11.85;;;10.23;;
2061;SDS011;11070;51.336;12.340;2023-10-13T04:58:31;11.27;;;10.07;;
2061;SDS011;11070;51.336;12.340;2023-10-13T05:01:00;17.15;;;11.50;;
2061;SDS011;11070;51.336;12.340;2023-10-13T05:03:47;11.85;;;10.75;;
2061;SDS011;11070;51.336;12.340;2023-10-13T05:06:32;11.75;;;10.55;;
2061;SDS011;11070;51.336;12.340;2023-10-13T05:09:06;11.07;;;10.05;;
2061;SDS011;11070;51.336;12.340;2023-10-13T05:11:51;11.95;;;10.40;;
2061;SDS011;11070;51.336;12.340;2023-10-13T05:14:35;12.82;;;10.40;;
2061;SDS011;11070;51.336;12.340;2023-10-13T05:17:19;12.60;;;10.35;;
2061;SDS011;11070;51.336;12.340;2023-10-13T05:20:03;12.75;;;10.18;;
2061;SDS011;11070;51.336;12.340;2023-10-13T05:22:52;14.63;;;10.35;;
2061;SDS011;11070;51.336;12.340;2023-10-13T05:25:37;11.27;;;10.18;;
2061;SDS011;11070;51.336;12.340;2023-10-13T05:28:21;13.15;;;10.57;;
2061;SDS011;11070;51.336;12.340;2023-10-13T05:31:06;13.05;;;10.75;;
2061;SDS011;11070;51.336;12.340;2023-10-13T05:33:51;11.38;;;10.18;;
2061;SDS011;11070;51.336;12.340;2023-10-13T05:36:35;12.77;;;11.35;;
2061;SDS011;11070;51.336;12.340;2023-10-13T05:39:20;15.50;;;11.02;;
2061;SDS011;11070;51.336;12.340;2023-10-13T05:42:04;14.23;;;10.90;;
2061;SDS011;11070;51.336;12.340;2023-10-13T05:44:48;13.88;;;11.85;;
2061;SDS011;11070;51.336;12.340;2023-10-13T05:47:41;13.23;;;11.77;;
2061;SDS011;11070;51.336;12.340;2023-10-13T05:50:09;13.43;;;11.18;;
2061;SDS011;11070;51.336;12.340;2023-10-13T05:52:47;12.00;;;10.77;;
2061;SDS011;11070;51.336;12.340;2023-10-13T05:55:29;12.35;;;10.85;;
2061;SDS011;11070;51.336;12.340;2023-10-13T05:58:14;13.10;;;11.80;;
2061;SDS011;11070;51.336;12.340;2023-10-13T06:00:59;13.23;;;11.60;;
2061;SDS011;11070;51.336;12.340;2023-10-13T06:03:43;14.70;;;11.43;;
2061;SDS011;11070;51.336;12.340;2023-10-13T06:06:28;14.23;;;12.82;;
2061;SDS011;11070;51.336;12.340;2023-10-13T06:09:12;13.57;;;12.18;;
2061;SDS011;11070;51.336;12.340;2023-10-13T06:11:56;14.20;;;11.27;;
2061;SDS011;11070;51.336;12.340;2023-10-13T06:14:44;14.32;;;12.10;;
2061;SDS011;11070;51.336;12.340;2023-10-13T06:17:29;13.50;;;11.65;;
2061;SDS011;11070;51.336;12.340;2023-10-13T06:20:13;14.27;;;12.27;;
2061;SDS011;11070;51.336;12.340;2023-10-13T06:22:57;13.60;;;12.07;;
2061;SDS011;11070;51.336;12.340;2023-10-13T06:25:41;15.23;;;11.73;;
2061;SDS011;11070;51.336;12.340;2023-10-13T06:28:25;13.77;;;12.23;;
2061;SDS011;11070;51.336;12.340;2023-10-13T06:31:06;12.80;;;11.50;;
2061;SDS011;11070;51.336;12.340;2023-10-13T06:33:36;15.15;;;13.13;;
2061;SDS011;11070;51.336;12.340;2023-10-13T06:36:09;16.15;;;13.30;;
2061;SDS011;11070;51.336;12.340;2023-10-13T06:38:35;13.40;;;11.20;;
2061;SDS011;11070;51.336;12.340;2023-10-13T06:41:04;13.40;;;12.00;;
2061;SDS011;11070;51.336;12.340;2023-10-13T06:43:34;14.48;;;12.50;;
2061;SDS011;11070;51.336;12.340;2023-10-13T06:46:11;13.13;;;11.77;;
2061;SDS011;11070;51.336;12.340;2023-10-13T06:48:48;15.38;;;12.10;;
2061;SDS011;11070;51.336;12.340;2023-10-13T06:51:18;12.32;;;10.88;;
2061;SDS011;11070;51.336;12.340;2023-10-13T06:53:46;15.95;;;11.60;;
2061;SDS011;11070;51.336;12.340;2023-10-13T06:56:16;14.07;;;11.68;;
2061;SDS011;11070;51.336;12.340;2023-10-13T06:58:50;11.65;;;10.40;;
2061;SDS011;11070;51.336;12.340;2023-10-13T07:01:16;12.70;;;11.02;;
2061;SDS011;11070;51.336;12.340;2023-10-13T07:03:47;12.18;;;10.88;;
2061;SDS011;11070;51.336;12.340;2023-10-13T07:06:18;13.65;;;11.13;;
2061;SDS011;11070;51.336;12.340;2023-10-13T07:08:45;12.88;;;10.70;;
2061;SDS011;11070;51.336;12.340;2023-10-13T07:11:26;15.40;;;11.10;;
2061;SDS011;11070;51.336;12.340;2023-10-13T07:14:07;14.07;;;10.32;;
2061;SDS011;11070;51.336;12.340;2023-10-13T07:16:57;11.30;;;9.60;;
2061;SDS011;11070;51.336;12.340;2023-10-13T07:19:26;12.15;;;9.60;;
2061;SDS011;11070;51.336;12.340;2023-10-13T07:21:55;13.18;;;9.65;;
2061;SDS011;11070;51.336;12.340;2023-10-13T07:24:27;12.00;;;10.10;;
2061;SDS011;11070;51.336;12.340;2023-10-13T07:27:00;11.40;;;10.25;;
2061;SDS011;11070;51.336;12.340;2023-10-13T07:29:31;10.85;;;9.75;;
2061;SDS011;11070;51.336;12.340;2023-10-13T07:31:59;10.93;;;9.82;;
2061;SDS011;11070;51.336;12.340;2023-10-13T07:34:29;13.43;;;9.13;;
2061;SDS011;11070;51.336;12.340;2023-10-13T07:36:58;9.70;;;8.35;;
2061;SDS011;11070;51.336;12.340;2023-10-13T07:39:28;10.20;;;9.23;;
2061;SDS011;11070;51.336;12.340;2023-10-13T07:42:04;10.70;;;9.07;;
2061;SDS011;11070;51.336;12.340;2023-10-13T07:44:40;9.68;;;8.68;;
2061;SDS011;11070;51.336;12.340;2023-10-13T07:47:11;10.43;;;8.40;;
2061;SDS011;11070;51.336;12.340;2023-10-13T07:49:39;9.93;;;9.05;;
2061;SDS011;11070;51.336;12.340;2023-10-13T07:52:06;11.75;;;8.77;;
2061;SDS011;11070;51.336;12.340;2023-10-13T07:54:45;12.00;;;8.95;;
2061;SDS011;11070;51.336;12.340;2023-10-13T07:57:15;10.48;;;8.57;;
2061;SDS011;11070;51.336;12.340;2023-10-13T07:59:42;10.27;;;9.07;;
2061;SDS011;11070;51.336;12.340;2023-10-13T08:02:15;9.32;;;8.43;;
2061;SDS011;11070;51.336;12.340;2023-10-13T08:05:01;12.75;;;8.55;;
2061;SDS011;11070;51.336;12.340;2023-10-13T08:07:29;10.52;;;8.43;;
2061;SDS011;11070;51.336;12.340;2023-10-13T08:09:56;9.07;;;8.18;;
2061;SDS011;11070;51.336;12.340;2023-10-13T08:12:24;10.38;;;9.02;;
2061;SDS011;11070;51.336;12.340;2023-10-13T08:14:50;10.13;;;9.15;;
2061;SDS011;11070;51.336;12.340;2023-10-13T08:17:34;10.50;;;9.38;;
2061;SDS011;11070;51.336;12.340;2023-10-13T08:20:00;17.63;;;9.50;;
2061;SDS011;11070;51.336;12.340;2023-10-13T08:22:36;10.40;;;8.95;;
2061;SDS011;11070;51.336;12.340;2023-10-13T08:25:03;10.25;;;9.00;;
2061;SDS011;11070;51.336;12.340;2023-10-13T08:28:07;10.98;;;9.25;;
2061;SDS011;11070;51.336;12.340;2023-10-13T08:30:51;9.82;;;8.82;;
2061;SDS011;11070;51.336;12.340;2023-10-13T08:33:17;10.60;;;9.50;;
2061;SDS011;11070;51.336;12.340;2023-10-13T08:35:44;10.30;;;8.53;;
2061;SDS011;11070;51.336;12.340;2023-10-13T08:38:30;13.60;;;9.25;;
2061;SDS011;11070;51.336;12.340;2023-10-13T08:41:08;9.57;;;8.70;;
2061;SDS011;11070;51.336;12.340;2023-10-13T08:43:49;11.27;;;8.68;;
2061;SDS011;11070;51.336;12.340;2023-10-13T08:46:16;13.45;;;9.48;;
2061;SDS011;11070;51.336;12.340;2023-10-13T08:48:55;10.55;;;8.95;;
2061;SDS011;11070;51.336;12.340;2023-10-13T08:51:50;9.15;;;8.25;;
2061;SDS011;11070;51.336;12.340;2023-10-13T08:54:32;12.32;;;8.90;;
2061;SDS011;11070;51.336;12.340;2023-10-13T08:57:04;10.43;;;8.98;;
2061;SDS011;11070;51.336;12.340;2023-10-13T08:59:55;11.10;;;9.52;;
2061;SDS011;11070;51.336;12.340;2023-10-13T09:02:23;9.83;;;8.83;;
2061;SDS011;11070;51.336;12.340;2023-10-13T09:05:08;9.73;;;8.55;;
2061;SDS011;11070;51.336;12.340;2023-10-13T09:07:55;11.15;;;8.82;;
2061;SDS011;11070;51.336;12.340;2023-10-13T09:10:23;12.68;;;8.80;;
2061;SDS011;11070;51.336;12.340;2023-10-13T09:12:58;14.65;;;9.75;;
2061;SDS011;11070;51.336;12.340;2023-10-13T09:15:28;10.05;;;8.75;;
2061;SDS011;11070;51.336;12.340;2023-10-13T09:18:22;10.68;;;9.60;;
2061;SDS011;11070;51.336;12.340;2023-10-13T09:21:07;13.55;;;8.50;;
2061;SDS011;11070;51.336;12.340;2023-10-13T09:23:51;10.27;;;9.13;;
2061;SDS011;11070;51.336;12.340;2023-10-13T09:26:35;12.68;;;8.98;;
2061;SDS011;11070;51.336;12.340;2023-10-13T09:29:01;9.83;;;8.73;;
2061;SDS011;11070;51.336;12.340;2023-10-13T09:31:32;10.50;;;8.75;;
2061;SDS011;11070;51.336;12.340;2023-10-13T09:33:57;10.90;;;8.53;;
2061;SDS011;11070;51.336;12.340;2023-10-13T09:36:23;10.90;;;8.70;;
2061;SDS011;11070;51.336;12.340;2023-10-13T09:38:51;10.25;;;9.20;;
2061;SDS011;11070;51.336;12.340;2023-10-13T09:41:37;11.07;;;9.23;;
2061;SDS011;11070;51.336;12.340;2023-10-13T09:44:05;11.15;;;9.10;;
2061;SDS011;11070;51.336;12.340;2023-10-13T09:46:33;13.52;;;9.10;;
2061;SDS011;11070;51.336;12.340;2023-10-13T09:49:11;12.50;;;8.25;;
2061;SDS011;11070;51.336;12.340;2023-10-13T09:51:59;10.93;;;8.60;;
2061;SDS011;11070;51.336;12.340;2023-10-13T09:54:28;13.27;;;8.70;;
2061;SDS011;11070;51.336;12.340;2023-10-13T09:57:16;13.40;;;8.02;;
2061;SDS011;11070;51.336;12.340;2023-10-13T09:59:49;13.88;;;9.18;;
2061;SDS011;11070;51.336;12.340;2023-10-13T10:02:21;9.88;;;8.85;;
2061;SDS011;11070;51.336;12.340;2023-10-13T10:04:53;10.52;;;8.23;;
2061;SDS011;11070;51.336;12.340;2023-10-13T10:07:27;12.07;;;9.45;;
2061;SDS011;11070;51.336;12.340;2023-10-13T10:09:56;12.07;;;8.23;;
2061;SDS011;11070;51.336;12.340;2023-10-13T10:15:07;10.52;;;8.70;;
2061;SDS011;11070;51.336;12.340;2023-10-13T10:17:55;9.23;;;8.23;;
2061;SDS011;11070;51.336;12.340;2023-10-13T10:20:41;12.65;;;8.48;;
2061;SDS011;11070;51.336;12.340;2023-10-13T10:23:09;12.55;;;9.10;;
2061;SDS011;11070;51.336;12.340;2023-10-13T10:25:46;10.98;;;8.35;;
2061;SDS011;11070;51.336;12.340;2023-10-13T10:28:13;16.15;;;8.75;;
2061;SDS011;11070;51.336;12.340;2023-10-13T10:30:41;15.43;;;8.20;;
2061;SDS011;11070;51.336;12.340;2023-10-13T10:33:09;12.35;;;8.63;;
2061;SDS011;11070;51.336;12.340;2023-10-13T10:35:42;15.25;;;9.07;;
2061;SDS011;11070;51.336;12.340;2023-10-13T10:38:09;10.40;;;8.93;;
2061;SDS011;11070;51.336;12.340;2023-10-13T10:40:52;12.55;;;8.25;;
2061;SDS011;11070;51.336;12.340;2023-10-13T10:49:03;10.10;;;8.38;;
2061;SDS011;11070;51.336;12.340;2023-10-13T10:51:33;9.82;;;8.18;;
2061;SDS011;11070;51.336;12.340;2023-10-13T10:54:17;13.43;;;7.55;;
2061;SDS011;11070;51.336;12.340;2023-10-13T10:56:44;10.43;;;7.72;;
2061;SDS011;11070;51.336;12.340;2023-10-13T10:59:17;12.82;;;9.05;;
2061;SDS011;11070;51.336;12.340;2023-10-13T11:01:45;9.35;;;7.78;;
2061;SDS011;11070;51.336;12.340;2023-10-13T11:04:17;10.68;;;7.85;;
2061;SDS011;11070;51.336;12.340;2023-10-13T11:06:47;8.98;;;8.05;;
2061;SDS011;11070;51.336;12.340;2023-10-13T11:09:26;10.95;;;7.45;;
2061;SDS011;11070;51.336;12.340;2023-10-13T11:11:56;11.77;;;7.53;;
2061;SDS011;11070;51.336;12.340;2023-10-13T11:14:31;11.07;;;7.35;;
2061;SDS011;11070;51.336;12.340;2023-10-13T11:16:59;11.45;;;8.13;;
2061;SDS011;11070;51.336;12.340;2023-10-13T11:19:37;9.97;;;7.10;;
2061;SDS011;11070;51.336;12.340;2023-10-13T11:22:13;11.13;;;6.50;;
2061;SDS011;11070;51.336;12.340;2023-10-13T11:24:58;7.43;;;6.25;;
2061;SDS011;11070;51.336;12.340;2023-10-13T11:27:29;15.13;;;7.07;;
2061;SDS011;11070;51.336;12.340;2023-10-13T11:30:11;13.70;;;7.63;;
2061;SDS011;11070;51.336;12.340;2023-10-13T11:32:40;13.07;;;6.80;;
2061;SDS011;11070;51.336;12.340;2023-10-13T11:35:09;10.03;;;6.23;;
2061;SDS011;11070;51.336;12.340;2023-10-13T11:37:46;10.68;;;6.85;;
2061;SDS011;11070;51.336;12.340;2023-10-13T11:40:21;11.10;;;6.90;;
2061;SDS011;11070;51.336;12.340;2023-10-13T11:43:08;9.23;;;6.57;;
2061;SDS011;11070;51.336;12.340;2023-10-13T11:45:40;9.27;;;6.07;;
2061;SDS011;11070;51.336;12.340;2023-10-13T11:48:25;7.83;;;5.90;;
2061;SDS011;11070;51.336;12.340;2023-10-13T11:51:01;11.40;;;6.13;;
2061;SDS011;11070;51.336;12.340;2023-10-13T11:53:36;10.10;;;6.60;;
2061;SDS011;11070;51.336;12.340;2023-10-13T11:56:03;9.57;;;6.67;;
2061;SDS011;11070;51.336;12.340;2023-10-13T11:58:36;10.40;;;6.40;;
2061;SDS011;11070;51.336;12.340;2023-10-13T12:01:03;10.60;;;6.20;;
2061;SDS011;11070;51.336;12.340;2023-10-13T12:03:38;11.23;;;6.20;;
2061;SDS011;11070;51.336;12.340;2023-10-13T12:06:26;10.90;;;6.40;;
2061;SDS011;11070;51.336;12.340;2023-10-13T12:09:04;12.33;;;6.33;;
2061;SDS011;11070;51.336;12.340;2023-10-13T12:12:03;10.43;;;6.87;;
2061;SDS011;11070;51.336;12.340;2023-10-13T12:14:29;9.20;;;6.30;;
2061;SDS011;11070;51.336;12.340;2023-10-13T12:17:03;8.40;;;6.13;;
2061;SDS011;11070;51.336;12.340;2023-10-13T12:19:29;8.23;;;6.10;;
2061;SDS011;11070;51.336;12.340;2023-10-13T12:21:56;8.30;;;6.07;;
2061;SDS011;11070;51.336;12.340;2023-10-13T12:24:22;12.50;;;6.00;;
2061;SDS011;11070;51.336;12.340;2023-10-13T12:27:04;15.97;;;5.77;;
2061;SDS011;11070;51.336;12.340;2023-10-13T12:29:46;9.53;;;5.50;;
2061;SDS011;11070;51.336;12.340;2023-10-13T12:32:12;9.73;;;5.40;;
2061;SDS011;11070;51.336;12.340;2023-10-13T12:34:39;10.30;;;6.27;;
2061;SDS011;11070;51.336;12.340;2023-10-13T12:37:24;10.80;;;6.13;;
2061;SDS011;11070;51.336;12.340;2023-10-13T12:43:03;8.00;;;5.23;;
2061;SDS011;11070;51.336;12.340;2023-10-13T12:45:48;10.40;;;5.87;;
2061;SDS011;11070;51.336;12.340;2023-10-13T12:48:34;9.83;;;5.70;;
2061;SDS011;11070;51.336;12.340;2023-10-13T12:51:18;9.53;;;6.33;;
2061;SDS011;11070;51.336;12.340;2023-10-13T12:53:56;14.90;;;6.07;;
2061;SDS011;11070;51.336;12.340;2023-10-13T12:56:45;11.40;;;6.13;;
2061;SDS011;11070;51.336;12.340;2023-10-13T12:59:11;7.60;;;5.57;;
2061;SDS011;11070;51.336;12.340;2023-10-13T13:01:39;8.90;;;5.83;;
2061;SDS011;11070;51.336;12.340;2023-10-13T13:04:09;11.07;;;5.90;;
2061;SDS011;11070;51.336;12.340;2023-10-13T13:06:45;8.00;;;5.60;;
2061;SDS011;11070;51.336;12.340;2023-10-13T13:09:18;6.90;;;6.20;;
2061;SDS011;11070;51.336;12.340;2023-10-13T13:11:51;9.13;;;5.90;;
2061;SDS011;11070;51.336;12.340;2023-10-13T13:14:22;9.47;;;5.97;;
2061;SDS011;11070;51.336;12.340;2023-10-13T13:16:54;10.50;;;6.10;;
2061;SDS011;11070;51.336;12.340;2023-10-13T13:19:29;9.00;;;6.63;;
2061;SDS011;11070;51.336;12.340;2023-10-13T13:22:13;10.50;;;5.73;;
2061;SDS011;11070;51.336;12.340;2023-10-13T13:24:42;9.43;;;6.07;;
2061;SDS011;11070;51.336;12.340;2023-10-13T13:27:09;11.60;;;7.43;;
2061;SDS011;11070;51.336;12.340;2023-10-13T13:29:38;11.67;;;6.10;;
2061;SDS011;11070;51.336;12.340;2023-10-13T13:32:05;9.27;;;6.83;;
2061;SDS011;11070;51.336;12.340;2023-10-13T13:34:32;8.93;;;5.83;;
2061;SDS011;11070;51.336;12.340;2023-10-13T13:36:58;11.90;;;6.60;;
2061;SDS011;11070;51.336;12.340;2023-10-13T13:39:27;13.83;;;6.43;;
2061;SDS011;11070;51.336;12.340;2023-10-13T13:41:55;10.70;;;6.00;;
2061;SDS011;11070;51.336;12.340;2023-10-13T13:44:25;11.93;;;5.73;;
2061;SDS011;11070;51.336;12.340;2023-10-13T13:47:01;8.00;;;5.90;;
2061;SDS011;11070;51.336;12.340;2023-10-13T13:49:39;8.03;;;5.83;;
2061;SDS011;11070;51.336;12.340;2023-10-13T13:52:11;9.23;;;5.33;;
2061;SDS011;11070;51.336;12.340;2023-10-13T13:54:43;9.50;;;6.47;;
2061;SDS011;11070;51.336;12.340;2023-10-13T13:57:09;10.80;;;6.13;;
2061;SDS011;11070;51.336;12.340;2023-10-13T13:59:34;8.10;;;5.23;;
2061;SDS011;11070;51.336;12.340;2023-10-13T14:02:01;12.53;;;6.20;;
2061;SDS011;11070;51.336;12.340;2023-10-13T14:04:47;13.53;;;6.20;;
2061;SDS011;11070;51.336;12.340;2023-10-13T14:07:20;8.97;;;6.07;;
2061;SDS011;11070;51.336;12.340;2023-10-13T14:09:48;10.70;;;5.77;;
2061;SDS011;11070;51.336;12.340;2023-10-13T14:12:18;9.97;;;5.87;;
2061;SDS011;11070;51.336;12.340;2023-10-13T14:15:06;11.10;;;6.20;;
2061;SDS011;11070;51.336;12.340;2023-10-13T14:17:45;12.83;;;5.80;;
2061;SDS011;11070;51.336;12.340;2023-10-13T14:20:14;9.87;;;6.30;;
2061;SDS011;11070;51.336;12.340;2023-10-13T14:22:43;7.80;;;5.67;;
2061;SDS011;11070;51.336;12.340;2023-10-13T14:25:12;6.90;;;5.97;;
2061;SDS011;11070;51.336;12.340;2023-10-13T14:27:39;12.80;;;6.90;;
2061;SDS011;11070;51.336;12.340;2023-10-13T14:30:08;6.33;;;5.60;;
2061;SDS011;11070;51.336;12.340;2023-10-13T14:32:34;7.97;;;5.70;;
2061;SDS011;11070;51.336;12.340;2023-10-13T14:35:05;11.70;;;5.50;;
2061;SDS011;11070;51.336;12.340;2023-10-13T14:37:39;8.00;;;5.77;;
2061;SDS011;11070;51.336;12.340;2023-10-13T14:40:06;10.53;;;6.10;;
2061;SDS011;11070;51.336;12.340;2023-10-13T14:42:37;6.17;;;5.57;;
2061;SDS011;11070;51.336;12.340;2023-10-13T14:45:05;9.53;;;5.90;;
2061;SDS011;11070;51.336;12.340;2023-10-13T14:47:52;7.70;;;6.00;;
2061;SDS011;11070;51.336;12.340;2023-10-13T14:50:17;13.80;;;5.90;;
2061;SDS011;11070;51.336;12.340;2023-10-13T14:52:46;11.03;;;5.90;;
2061;SDS011;11070;51.336;12.340;2023-10-13T14:55:13;9.10;;;5.90;;
2061;SDS011;11070;51.336;12.340;2023-10-13T14:57:46;17.50;;;6.50;;
2061;SDS011;11070;51.336;12.340;2023-10-13T15:00:13;7.80;;;5.87;;
2061;SDS011;11070;51.336;12.340;2023-10-13T15:02:38;8.67;;;6.50;;
2061;SDS011;11070;51.336;12.340;2023-10-13T15:05:08;7.03;;;6.33;;
2061;SDS011;11070;51.336;12.340;2023-10-13T15:07:41;10.50;;;6.37;;
2061;SDS011;11070;51.336;12.340;2023-10-13T15:10:13;9.33;;;6.30;;
2061;SDS011;11070;51.336;12.340;2023-10-13T15:12:43;12.80;;;6.50;;
2061;SDS011;11070;51.336;12.340;2023-10-13T15:15:12;9.43;;;6.00;;
2061;SDS011;11070;51.336;12.340;2023-10-13T15:17:44;6.43;;;5.83;;
2061;SDS011;11070;51.336;12.340;2023-10-13T15:20:11;12.90;;;6.80;;
2061;SDS011;11070;51.336;12.340;2023-10-13T15:22:43;10.83;;;6.07;;